createdAt,value
2023-04-26T00:00:25.501Z,2.78
2023-04-26T00:02:51.911Z,3.63
2023-04-26T00:05:19.571Z,3.33
2023-04-26T00:07:46.543Z,3.35
2023-04-26T00:10:12.853Z,3.15
2023-04-26T00:12:41.107Z,3.45
2023-04-26T00:15:07.661Z,3.17
2023-04-26T00:17:34.044Z,3.53
2023-04-26T00:20:00.425Z,2.92
2023-04-26T00:22:26.785Z,3.42
2023-04-26T00:24:52.983Z,3.20
2023-04-26T00:27:19.220Z,3.78
2023-04-26T00:29:45.435Z,3.42
2023-04-26T00:32:11.694Z,3.35
2023-04-26T00:34:38.287Z,3.20
2023-04-26T00:37:04.883Z,3.58
2023-04-26T00:39:31.108Z,4.03
2023-04-26T00:41:57.791Z,3.15
2023-04-26T00:44:24.096Z,3.53
2023-04-26T00:46:51.861Z,3.53
2023-04-26T00:49:21.630Z,3.60
2023-04-26T00:51:47.938Z,3.47
2023-04-26T00:54:15.324Z,3.58
2023-04-26T00:56:41.985Z,3.20
2023-04-26T00:59:08.350Z,3.30
2023-04-26T01:01:35.500Z,3.30
2023-04-26T01:04:02.758Z,3.50
2023-04-26T01:06:33.856Z,2.97
2023-04-26T01:09:05.015Z,3.38
2023-04-26T01:11:31.896Z,3.28
2023-04-26T01:13:58.141Z,2.83
2023-04-26T01:16:24.745Z,3.13
2023-04-26T01:18:54.207Z,3.20
2023-04-26T01:21:22.107Z,3.15
2023-04-26T01:23:48.874Z,3.00
2023-04-26T01:26:15.222Z,3.75
2023-04-26T01:28:41.469Z,3.72
2023-04-26T01:31:07.749Z,3.72
2023-04-26T01:33:34.016Z,3.42
2023-04-26T01:36:00.236Z,3.40
2023-04-26T01:38:26.517Z,3.38
2023-04-26T01:40:52.703Z,2.97
2023-04-26T01:43:20.993Z,3.15
2023-04-26T01:45:47.994Z,3.10
2023-04-26T01:48:14.218Z,3.97
2023-04-26T01:50:40.489Z,3.85
2023-04-26T01:53:06.690Z,3.55
2023-04-26T01:55:35.998Z,4.22
2023-04-26T01:58:02.233Z,3.45
2023-04-26T02:00:29.123Z,3.38
2023-04-26T02:02:55.988Z,3.70
2023-04-26T02:05:22.529Z,3.58
2023-04-26T02:07:48.966Z,3.55
2023-04-26T02:10:15.242Z,3.35
2023-04-26T02:12:41.478Z,4.32
2023-04-26T02:15:08.228Z,3.97
2023-04-26T02:17:34.544Z,3.67
2023-04-26T02:20:00.842Z,4.65
2023-04-26T02:22:27.118Z,3.90
2023-04-26T02:24:53.478Z,3.92
2023-04-26T02:27:19.839Z,4.45
2023-04-26T02:29:49.087Z,4.03
2023-04-26T02:32:15.487Z,4.22
2023-04-26T02:34:41.827Z,4.18
2023-04-26T02:37:08.776Z,3.78
2023-04-26T02:39:34.968Z,4.30
2023-04-26T02:42:01.202Z,4.18
2023-04-26T02:44:30.996Z,4.07
2023-04-26T02:46:57.621Z,4.90
2023-04-26T02:49:23.940Z,4.32
2023-04-26T02:51:50.152Z,5.03
2023-04-26T02:54:16.397Z,5.35
2023-04-26T02:56:42.607Z,4.68
2023-04-26T02:59:08.795Z,3.95
2023-04-26T03:01:35.436Z,4.78
2023-04-26T03:04:01.826Z,5.25
2023-04-26T03:06:29.751Z,5.15
2023-04-26T03:08:56.334Z,5.55
2023-04-26T03:11:22.525Z,4.80
2023-04-26T03:13:48.722Z,4.57
2023-04-26T03:16:15.014Z,4.22
2023-04-26T03:18:41.386Z,4.70
2023-04-26T03:21:07.656Z,4.70
2023-04-26T03:23:34.047Z,5.43
2023-04-26T03:26:00.383Z,4.45
2023-04-26T03:28:26.592Z,4.53
2023-04-26T03:30:52.904Z,4.80
2023-04-26T03:33:19.114Z,4.97
2023-04-26T03:35:45.309Z,5.03
2023-04-26T03:38:11.537Z,5.03
2023-04-26T03:40:37.765Z,4.43
2023-04-26T03:43:04.009Z,4.60
2023-04-26T03:45:30.268Z,5.28
2023-04-26T03:47:56.720Z,4.60
2023-04-26T03:50:22.986Z,5.00
2023-04-26T03:52:49.179Z,4.63
2023-04-26T03:55:15.443Z,4.60
2023-04-26T03:57:41.649Z,5.00
2023-04-26T04:00:12.965Z,5.30
2023-04-26T04:05:05.756Z,5.10
2023-04-26T04:07:35.062Z,5.15
2023-04-26T04:10:01.322Z,5.50
2023-04-26T04:12:27.526Z,5.40
2023-04-26T04:14:53.819Z,5.15
2023-04-26T04:17:20.157Z,5.10
2023-04-26T04:19:46.377Z,5.28
2023-04-26T04:22:12.590Z,5.10
2023-04-26T04:24:38.804Z,6.00
2023-04-26T04:27:05.125Z,5.47
2023-04-26T04:29:32.677Z,5.38
2023-04-26T04:31:58.886Z,5.30
2023-04-26T04:34:26.054Z,5.72
2023-04-26T04:36:52.284Z,5.18
2023-04-26T04:39:18.904Z,5.25
2023-04-26T04:41:48.273Z,5.40
2023-04-26T04:44:16.188Z,5.57
2023-04-26T04:46:42.900Z,5.45
2023-04-26T04:49:12.378Z,6.28
2023-04-26T04:51:38.962Z,5.68
2023-04-26T04:54:11.057Z,5.38
2023-04-26T04:56:37.301Z,5.72
2023-04-26T04:59:04.234Z,6.20
2023-04-26T05:01:33.839Z,6.15
2023-04-26T05:04:00.482Z,5.28
2023-04-26T05:06:27.731Z,5.32
2023-04-26T05:08:54.516Z,6.05
2023-04-26T05:11:21.307Z,5.93
2023-04-26T05:13:48.981Z,6.13
2023-04-26T05:16:16.914Z,6.28
2023-04-26T05:18:43.221Z,6.22
2023-04-26T05:21:09.520Z,7.07
2023-04-26T05:23:36.066Z,6.53
2023-04-26T05:26:04.857Z,5.70
2023-04-26T05:28:31.128Z,6.13
2023-04-26T05:30:57.363Z,6.43
2023-04-26T05:33:23.720Z,7.00
2023-04-26T05:35:49.955Z,6.13
2023-04-26T05:38:16.498Z,7.25
2023-04-26T05:40:42.677Z,6.55
2023-04-26T05:43:08.895Z,7.35
2023-04-26T05:45:35.131Z,7.35
2023-04-26T05:48:01.479Z,6.50
2023-04-26T05:50:27.758Z,7.93
2023-04-26T05:52:54.217Z,7.18
2023-04-26T05:55:21.331Z,7.50
2023-04-26T05:57:47.667Z,6.60
2023-04-26T06:00:14.144Z,7.80
2023-04-26T06:02:40.767Z,8.30
2023-04-26T06:05:07.502Z,8.23
2023-04-26T06:07:33.813Z,7.82
2023-04-26T06:10:03.286Z,8.23
2023-04-26T06:12:29.484Z,8.23
2023-04-26T06:14:55.675Z,7.85
2023-04-26T06:17:21.942Z,7.25
2023-04-26T06:19:48.143Z,7.38
2023-04-26T06:22:14.354Z,7.45
2023-04-26T06:24:41.157Z,6.72
2023-04-26T06:27:07.469Z,5.80
2023-04-26T06:29:33.932Z,6.60
2023-04-26T06:32:00.283Z,6.88
2023-04-26T06:34:27.025Z,6.78
2023-04-26T06:36:53.512Z,6.25
2023-04-26T06:39:19.697Z,7.03
2023-04-26T06:41:45.919Z,5.32
2023-04-26T06:44:12.112Z,5.50
2023-04-26T06:46:38.440Z,5.53
2023-04-26T06:49:05.003Z,5.80
2023-04-26T06:51:31.360Z,5.60
2023-04-26T06:54:01.238Z,5.35
2023-04-26T06:56:27.527Z,5.85
2023-04-26T06:59:00.848Z,5.22
2023-04-26T07:01:29.246Z,5.57
2023-04-26T07:03:57.418Z,4.88
2023-04-26T07:06:24.708Z,4.80
2023-04-26T07:08:51.301Z,5.07
2023-04-26T07:11:17.636Z,5.75
2023-04-26T07:13:43.832Z,4.20
2023-04-26T07:16:10.153Z,4.60
2023-04-26T07:18:36.692Z,3.90
2023-04-26T07:21:02.937Z,4.20
2023-04-26T07:23:29.368Z,4.53
2023-04-26T07:25:57.419Z,4.55
2023-04-26T07:28:24.278Z,3.63
2023-04-26T07:30:50.465Z,4.50
2023-04-26T07:33:16.809Z,4.50
2023-04-26T07:35:43.442Z,4.07
2023-04-26T07:38:10.204Z,5.10
2023-04-26T07:40:36.583Z,4.20
2023-04-26T07:43:02.823Z,4.50
2023-04-26T07:45:29.042Z,4.13
2023-04-26T07:47:55.366Z,4.65
2023-04-26T07:50:21.640Z,4.30
2023-04-26T07:52:47.837Z,4.32
2023-04-26T07:55:14.956Z,4.38
2023-04-26T07:57:42.987Z,4.40
2023-04-26T08:00:12.533Z,4.70
2023-04-26T08:05:09.689Z,4.10
2023-04-26T08:07:36.108Z,4.18
2023-04-26T08:10:02.295Z,4.40
2023-04-26T08:12:28.484Z,5.07
2023-04-26T08:14:54.705Z,5.28
2023-04-26T08:17:21.050Z,4.90
2023-04-26T08:19:47.247Z,4.97
2023-04-26T08:22:13.440Z,5.20
2023-04-26T08:24:39.916Z,6.22
2023-04-26T08:27:06.661Z,5.45
2023-04-26T08:29:32.851Z,6.03
2023-04-26T08:31:59.052Z,5.63
2023-04-26T08:34:25.379Z,5.60
2023-04-26T08:36:51.869Z,5.43
2023-04-26T08:39:18.105Z,5.78
2023-04-26T08:41:45.692Z,5.80
2023-04-26T08:44:11.968Z,6.45
2023-04-26T08:46:44.811Z,6.28
2023-04-26T08:49:29.899Z,5.55
2023-04-26T08:51:56.696Z,5.57
2023-04-26T08:54:23.390Z,5.65
2023-04-26T08:56:49.804Z,4.82
2023-04-26T08:59:16.163Z,5.07
2023-04-26T09:01:43.447Z,4.60
2023-04-26T09:04:09.988Z,5.05
2023-04-26T09:06:37.014Z,4.50
2023-04-26T09:09:04.861Z,4.60
2023-04-26T09:11:31.187Z,5.45
2023-04-26T09:13:57.475Z,4.78
2023-04-26T09:16:36.914Z,5.30
2023-04-26T09:19:03.467Z,5.95
2023-04-26T09:21:29.923Z,5.18
2023-04-26T09:24:00.137Z,5.68
2023-04-26T09:26:26.615Z,5.55
2023-04-26T09:29:11.764Z,6.10
2023-04-26T09:31:39.927Z,5.55
2023-04-26T09:34:06.525Z,5.10
2023-04-26T09:36:32.801Z,4.90
2023-04-26T09:39:00.947Z,4.72
2023-04-26T09:41:41.930Z,4.97
2023-04-26T09:44:20.247Z,5.10
2023-04-26T09:46:57.689Z,4.60
2023-04-26T09:49:25.599Z,3.88
2023-04-26T09:52:01.835Z,3.70
2023-04-26T09:54:38.002Z,3.65
2023-04-26T09:57:04.265Z,3.70
2023-04-26T09:59:40.911Z,4.63
2023-04-26T10:02:26.588Z,3.88
2023-04-26T10:04:54.370Z,3.90
2023-04-26T10:07:22.068Z,4.72
2023-04-26T10:09:48.918Z,5.15
2023-04-26T10:12:16.497Z,5.28
2023-04-26T10:14:44.175Z,5.18
2023-04-26T10:17:11.751Z,5.28
2023-04-26T10:19:39.436Z,5.10
2023-04-26T10:22:08.235Z,4.47
2023-04-26T10:24:35.223Z,4.78
2023-04-26T10:27:03.929Z,4.90
2023-04-26T10:29:48.965Z,4.47
2023-04-26T10:32:18.347Z,4.25
2023-04-26T10:34:44.707Z,5.18
2023-04-26T10:37:15.923Z,5.22
2023-04-26T10:39:45.990Z,4.38
2023-04-26T10:42:25.526Z,4.78
2023-04-26T10:44:59.095Z,4.57
2023-04-26T10:47:25.346Z,4.40
2023-04-26T10:49:51.781Z,3.85
2023-04-26T10:52:23.064Z,4.40
2023-04-26T10:54:50.862Z,4.28
2023-04-26T10:57:17.884Z,4.10
2023-04-26T11:00:05.235Z,4.63
2023-04-26T11:02:44.237Z,5.10
2023-04-26T11:05:10.488Z,4.80
2023-04-26T11:07:40.929Z,4.75
2023-04-26T11:10:10.443Z,4.63
2023-04-26T11:12:36.842Z,4.50
2023-04-26T11:15:03.162Z,4.40
2023-04-26T11:17:36.462Z,4.47
2023-04-26T11:20:07.177Z,4.57
2023-04-26T11:22:34.501Z,4.37
2023-04-26T11:25:00.781Z,4.22
2023-04-26T11:27:27.636Z,4.25
2023-04-26T11:29:54.513Z,4.05
2023-04-26T11:32:20.850Z,4.20
2023-04-26T11:34:50.666Z,4.50
2023-04-26T11:37:17.699Z,4.28
2023-04-26T11:39:44.953Z,4.78
2023-04-26T11:42:11.781Z,3.83
2023-04-26T11:44:38.439Z,3.85
2023-04-26T11:47:05.388Z,4.25
2023-04-26T11:49:32.211Z,3.53
2023-04-26T11:51:58.887Z,3.78
2023-04-26T11:54:30.028Z,3.95
2023-04-26T11:56:56.723Z,3.78
2023-04-26T11:59:26.663Z,3.75
2023-04-26T12:01:53.238Z,3.83
2023-04-26T12:04:19.730Z,4.00
2023-04-26T12:06:46.761Z,4.13
2023-04-26T12:09:13.321Z,3.42
2023-04-26T12:11:39.878Z,3.88
2023-04-26T12:14:07.679Z,3.47
2023-04-26T12:16:35.875Z,3.15
2023-04-26T12:19:05.343Z,3.65
2023-04-26T12:21:39.816Z,3.63
2023-04-26T12:24:06.215Z,4.20
2023-04-26T12:26:44.799Z,3.83
2023-04-26T12:29:11.379Z,3.65
2023-04-26T12:31:37.688Z,4.15
2023-04-26T12:34:03.911Z,3.70
2023-04-26T12:36:31.469Z,4.00
2023-04-26T12:38:57.977Z,3.70
2023-04-26T12:41:24.419Z,3.45
2023-04-26T12:43:50.681Z,4.00
2023-04-26T12:46:17.069Z,3.63
2023-04-26T12:48:43.309Z,3.80
2023-04-26T12:51:09.513Z,3.90
2023-04-26T12:53:35.729Z,3.10
2023-04-26T12:56:01.970Z,3.53
2023-04-26T12:58:29.000Z,3.33
2023-04-26T13:00:55.251Z,3.72
2023-04-26T13:03:21.676Z,4.05
2023-04-26T13:05:48.013Z,3.70
2023-04-26T13:08:14.549Z,3.40
2023-04-26T13:10:41.051Z,3.90
2023-04-26T13:13:07.258Z,3.47
2023-04-26T13:15:33.516Z,3.47
2023-04-26T13:17:59.817Z,3.55
2023-04-26T13:20:27.282Z,3.25
2023-04-26T13:22:55.532Z,3.30
2023-04-26T13:25:22.344Z,3.63
2023-04-26T13:27:48.626Z,3.22
2023-04-26T13:30:14.849Z,3.45
2023-04-26T13:32:41.166Z,3.70
2023-04-26T13:35:08.077Z,3.53
2023-04-26T13:37:34.297Z,3.28
2023-04-26T13:40:00.745Z,3.25
2023-04-26T13:42:27.402Z,3.67
2023-04-26T13:44:53.726Z,3.60
2023-04-26T13:47:20.014Z,3.60
2023-04-26T13:49:46.254Z,3.60
2023-04-26T13:52:12.751Z,3.85
2023-04-26T13:54:41.667Z,3.45
2023-04-26T13:57:07.922Z,3.58
2023-04-26T13:59:34.117Z,3.90
2023-04-26T14:02:00.374Z,3.92
2023-04-26T14:04:27.187Z,3.45
2023-04-26T14:06:53.736Z,3.83
2023-04-26T14:09:19.977Z,3.85
2023-04-26T14:11:49.465Z,3.28
2023-04-26T14:14:20.404Z,4.10
2023-04-26T14:16:46.811Z,3.90
2023-04-26T14:19:15.273Z,3.88
2023-04-26T14:21:41.858Z,3.92
2023-04-26T14:24:08.176Z,4.28
2023-04-26T14:26:34.493Z,3.80
2023-04-26T14:29:01.318Z,4.63
2023-04-26T14:31:28.755Z,3.80
2023-04-26T14:33:56.188Z,3.25
2023-04-26T14:36:22.586Z,3.22
2023-04-26T14:38:48.813Z,3.83
2023-04-26T14:41:16.303Z,3.58
2023-04-26T14:43:46.297Z,3.60
2023-04-26T14:46:12.954Z,4.43
2023-04-26T14:48:39.228Z,4.20
2023-04-26T14:51:05.437Z,4.20
2023-04-26T14:53:31.657Z,4.18
2023-04-26T14:55:58.228Z,3.92
2023-04-26T14:58:25.264Z,4.40
2023-04-26T15:00:52.476Z,4.07
2023-04-26T15:03:19.536Z,3.80
2023-04-26T15:05:45.881Z,4.20
2023-04-26T15:08:12.105Z,3.92
2023-04-26T15:10:38.324Z,4.18
2023-04-26T15:13:04.734Z,4.25
2023-04-26T15:15:31.051Z,4.30
2023-04-26T15:17:57.307Z,4.00
2023-04-26T15:20:24.288Z,4.57
2023-04-26T15:22:50.983Z,3.83
2023-04-26T15:25:17.221Z,3.45
2023-04-26T15:27:46.750Z,4.65
2023-04-26T15:30:13.079Z,3.80
2023-04-26T15:32:39.348Z,3.65
2023-04-26T15:35:06.216Z,4.20
2023-04-26T15:37:32.410Z,3.97
2023-04-26T15:39:58.591Z,4.03
2023-04-26T15:42:24.812Z,4.10
2023-04-26T15:44:51.013Z,4.20
2023-04-26T15:47:17.604Z,4.10
2023-04-26T15:49:43.821Z,4.07
2023-04-26T15:52:10.509Z,3.70
2023-04-26T15:54:36.697Z,4.32
2023-04-26T15:57:03.838Z,3.97
2023-04-26T15:59:30.620Z,3.80
2023-04-26T16:01:56.875Z,3.92
2023-04-26T16:04:23.370Z,4.15
2023-04-26T16:06:49.818Z,4.50
2023-04-26T16:09:25.346Z,4.50
2023-04-26T16:11:52.183Z,4.28
2023-04-26T16:14:18.438Z,4.50
2023-04-26T16:16:45.852Z,4.13
2023-04-26T16:19:12.274Z,4.20
2023-04-26T16:21:40.069Z,4.28
2023-04-26T16:24:08.694Z,4.57
2023-04-26T16:26:35.367Z,4.50
2023-04-26T16:29:01.729Z,3.95
2023-04-26T16:31:27.997Z,4.70
2023-04-26T16:33:54.195Z,4.35
2023-04-26T16:36:20.517Z,4.15
2023-04-26T16:38:46.976Z,4.95
2023-04-26T16:41:13.234Z,4.13
2023-04-26T16:43:39.586Z,5.22
2023-04-26T16:46:07.005Z,3.90
2023-04-26T16:48:34.045Z,4.47
2023-04-26T16:51:01.030Z,4.13
2023-04-26T16:53:27.293Z,3.65
2023-04-26T16:55:54.235Z,4.10
2023-04-26T16:58:20.534Z,4.20
2023-04-26T17:00:46.885Z,4.40
2023-04-26T17:03:13.248Z,3.70
2023-04-26T17:05:43.473Z,3.75
2023-04-26T17:08:10.026Z,4.10
2023-04-26T17:10:36.727Z,3.45
2023-04-26T17:13:04.133Z,3.38
2023-04-26T17:15:30.665Z,3.83
2023-04-26T17:17:57.150Z,3.40
2023-04-26T17:20:23.370Z,3.67
2023-04-26T17:22:49.612Z,4.05
2023-04-26T17:25:15.983Z,3.53
2023-04-26T17:27:42.253Z,4.55
2023-04-26T17:30:09.062Z,6.22
2023-04-26T17:32:35.414Z,5.78
2023-04-26T17:35:01.670Z,4.30
2023-04-26T17:37:28.468Z,4.32
2023-04-26T17:39:54.932Z,4.00
2023-04-26T17:42:21.240Z,3.53
2023-04-26T17:44:47.426Z,4.20
2023-04-26T17:47:13.647Z,3.60
2023-04-26T17:49:39.847Z,4.65
2023-04-26T17:52:06.075Z,5.35
2023-04-26T17:54:32.706Z,4.13
2023-04-26T17:56:58.899Z,4.00
2023-04-26T17:59:25.143Z,3.70
2023-04-26T18:01:51.389Z,4.22
2023-04-26T18:04:17.794Z,3.78
2023-04-26T18:06:44.345Z,4.05
2023-04-26T18:09:10.574Z,3.67
2023-04-26T18:11:37.053Z,3.28
2023-04-26T18:14:03.248Z,3.67
2023-04-26T18:16:29.517Z,3.55
2023-04-26T18:18:55.935Z,3.38
2023-04-26T18:21:22.144Z,3.67
2023-04-26T18:23:48.410Z,3.33
2023-04-26T18:26:14.625Z,4.03
2023-04-26T18:28:40.953Z,3.63
2023-04-26T18:31:08.050Z,3.45
2023-04-26T18:33:34.275Z,3.92
2023-04-26T18:36:00.504Z,4.18
2023-04-26T18:38:26.692Z,3.92
2023-04-26T18:40:53.008Z,4.05
2023-04-26T18:43:19.422Z,3.40
2023-04-26T18:45:45.865Z,3.60
2023-04-26T18:48:12.130Z,3.80
2023-04-26T18:50:38.361Z,3.80
2023-04-26T18:53:04.555Z,4.53
2023-04-26T18:55:31.007Z,3.83
2023-04-26T18:57:57.248Z,3.90
2023-04-26T19:00:23.574Z,4.15
2023-04-26T19:02:51.067Z,4.25
2023-04-26T19:05:17.408Z,4.13
2023-04-26T19:07:44.837Z,4.00
2023-04-26T19:10:11.296Z,3.92
2023-04-26T19:12:37.505Z,4.57
2023-04-26T19:15:03.937Z,4.05
2023-04-26T19:17:33.130Z,4.10
2023-04-26T19:19:59.438Z,4.78
2023-04-26T19:22:25.721Z,4.30
2023-04-26T19:24:51.997Z,4.57
2023-04-26T19:27:18.260Z,4.00
2023-04-26T19:29:44.462Z,5.15
2023-04-26T19:32:10.690Z,4.60
2023-04-26T19:34:38.723Z,4.25
2023-04-26T19:37:05.124Z,4.90
2023-04-26T19:39:31.344Z,4.25
2023-04-26T19:41:57.684Z,4.40
2023-04-26T19:44:24.084Z,4.38
2023-04-26T19:46:50.371Z,4.18
2023-04-26T19:49:16.619Z,4.60
2023-04-26T19:51:42.853Z,4.57
2023-04-26T19:54:09.061Z,4.22
2023-04-26T19:56:35.291Z,4.90
2023-04-26T19:59:01.523Z,4.63
2023-04-26T20:01:28.035Z,4.82
2023-04-26T20:03:54.429Z,4.60
2023-04-26T20:06:20.777Z,4.53
2023-04-26T20:08:47.895Z,4.80
2023-04-26T20:11:17.518Z,4.65
2023-04-26T20:13:44.219Z,4.28
2023-04-26T20:16:11.383Z,4.30
2023-04-26T20:18:37.877Z,3.97
2023-04-26T20:21:04.685Z,4.65
2023-04-26T20:23:31.387Z,4.22
2023-04-26T20:25:57.856Z,4.45
2023-04-26T20:28:26.817Z,5.00
2023-04-26T20:30:53.272Z,4.95
2023-04-26T20:33:19.681Z,4.65
2023-04-26T20:35:45.896Z,4.10
2023-04-26T20:38:12.665Z,4.07
2023-04-26T20:40:39.183Z,4.40
2023-04-26T20:43:05.386Z,4.57
2023-04-26T20:45:31.864Z,4.80
2023-04-26T20:47:58.202Z,4.50
2023-04-26T20:50:24.516Z,4.30
2023-04-26T20:52:51.286Z,7.40
2023-04-26T20:55:17.665Z,13.70
2023-04-26T20:57:43.853Z,9.00
2023-04-26T21:00:10.535Z,5.15
2023-04-26T21:02:37.511Z,5.85
2023-04-26T21:05:04.657Z,4.93
2023-04-26T21:07:31.411Z,7.53
2023-04-26T21:09:57.644Z,4.95
2023-04-26T21:12:23.897Z,5.07
2023-04-26T21:14:50.120Z,4.80
2023-04-26T21:17:16.323Z,4.97
2023-04-26T21:19:42.607Z,4.53
2023-04-26T21:22:12.171Z,4.78
2023-04-26T21:24:38.390Z,4.30
2023-04-26T21:27:04.598Z,4.47
2023-04-26T21:29:34.097Z,4.18
2023-04-26T21:32:00.316Z,5.20
2023-04-26T21:34:26.709Z,4.40
2023-04-26T21:36:53.659Z,4.38
2023-04-26T21:39:19.860Z,4.50
2023-04-26T21:41:46.053Z,4.45
2023-04-26T21:44:13.090Z,4.65
2023-04-26T21:46:39.411Z,4.50
2023-04-26T21:49:05.773Z,4.20
2023-04-26T21:51:31.974Z,4.40
2023-04-26T21:53:58.237Z,5.03
2023-04-26T21:56:24.883Z,4.35
2023-04-26T21:58:51.089Z,4.90
2023-04-26T22:01:17.421Z,4.72
2023-04-26T22:03:43.815Z,5.53
2023-04-26T22:06:10.773Z,4.60
2023-04-26T22:08:37.012Z,4.93
2023-04-26T22:11:03.589Z,4.65
2023-04-26T22:13:30.667Z,5.10
2023-04-26T22:15:56.973Z,4.68
2023-04-26T22:18:23.184Z,5.47
2023-04-26T22:20:49.375Z,4.47
2023-04-26T22:23:15.604Z,4.65
2023-04-26T22:25:41.793Z,4.95
2023-04-26T22:28:08.027Z,4.60
2023-04-26T22:30:34.274Z,4.80
2023-04-26T22:33:00.686Z,4.63
2023-04-26T22:35:27.565Z,4.75
2023-04-26T22:37:54.191Z,4.60
2023-04-26T22:40:20.426Z,5.22
2023-04-26T22:42:46.669Z,4.40
2023-04-26T22:45:12.999Z,4.88
2023-04-26T22:47:39.727Z,4.75
2023-04-26T22:50:07.242Z,4.35
2023-04-26T22:52:33.663Z,4.30
2023-04-26T22:55:00.523Z,5.22
2023-04-26T22:57:28.298Z,4.88
2023-04-26T22:59:54.501Z,4.45
2023-04-26T23:02:20.895Z,4.70
2023-04-26T23:04:47.439Z,4.60
2023-04-26T23:07:13.717Z,5.00
2023-04-26T23:09:39.989Z,4.50
2023-04-26T23:12:06.223Z,4.85
2023-04-26T23:14:32.498Z,5.07
2023-04-26T23:16:58.741Z,5.32
2023-04-26T23:19:26.121Z,4.70
2023-04-26T23:21:53.106Z,4.80
2023-04-26T23:24:19.337Z,4.63
2023-04-26T23:26:45.580Z,5.10
2023-04-26T23:29:12.055Z,4.82
2023-04-26T23:31:38.445Z,4.85
2023-04-26T23:34:04.693Z,4.40
2023-04-26T23:36:30.892Z,5.53
2023-04-26T23:38:57.076Z,4.70
2023-04-26T23:41:23.383Z,4.65
2023-04-26T23:43:49.586Z,4.80
2023-04-26T23:46:16.148Z,5.38
2023-04-26T23:48:42.396Z,4.75
2023-04-26T23:51:08.696Z,4.72
2023-04-26T23:53:35.022Z,5.13
2023-04-26T23:56:01.233Z,4.85
2023-04-26T23:58:27.506Z,4.38
